Time;durP1;ratioP1;P1;durP2;ratioP2;P2;SDS_P1;SDS_P2;PMS_P1;PMS_P2;Temp;Humidity;BMP_temperature;BMP_pressure;BME280_temperature;BME280_humidity;BME280_pressure;Samples;Min_cycle;Max_cycle;Signal;HPM_P1;HPM_P2
2023/02/08 00:04:50;;;;;;;31.37;15.20;;;;;;;-0.72;100.00;103464.47;4701490;60;1143239;-68
2023/02/08 00:09:56;;;;;;;35.97;15.73;;;;;;;-0.78;100.00;103462.66;4702013;59;1143185;-66
2023/02/08 00:15:01;;;;;;;60.17;18.23;;;;;;;-0.73;100.00;103474.41;4678754;60;1143121;-68
2023/02/08 00:20:08;;;;;;;57.85;19.70;;;;;;;-0.72;100.00;103467.94;4630539;60;1143117;-67
2023/02/08 00:25:16;;;;;;;69.00;22.07;;;;;;;-0.72;100.00;103467.06;4630850;59;1143053;-67
2023/02/08 00:30:21;;;;;;;42.90;17.00;;;;;;;-0.69;100.00;103468.84;4648697;59;1143143;-67
2023/02/08 00:35:28;;;;;;;35.68;15.93;;;;;;;-0.67;100.00;103459.35;4630164;59;1143429;-65
2023/02/08 00:40:34;;;;;;;114.20;34.93;;;;;;;-0.73;100.00;103465.31;4609620;60;1143251;-67
2023/02/08 00:45:40;;;;;;;70.08;25.25;;;;;;;-0.69;100.00;103469.72;4660056;59;1145082;-69
2023/02/08 00:50:47;;;;;;;32.70;14.95;;;;;;;-0.63;100.00;103475.45;4627712;60;1143090;-68
2023/02/08 00:55:54;;;;;;;38.93;16.57;;;;;;;-0.67;100.00;103474.95;4557757;61;1142982;-67
2023/02/08 01:01:00;;;;;;;45.10;20.02;;;;;;;-0.74;100.00;103472.66;4627649;60;1143056;-65
2023/02/08 01:06:12;;;;;;;65.90;27.17;;;;;;;-0.79;100.00;103473.91;4616494;60;1143058;-66
2023/02/08 01:11:21;;;;;;;45.20;22.17;;;;;;;-0.79;100.00;103476.93;4551348;61;1143202;-68
2023/02/08 01:16:32;;;;;;;55.00;22.60;;;;;;;-0.81;100.00;103470.41;4542022;61;1143248;-66
2023/02/08 01:21:41;;;;;;;59.30;24.00;;;;;;;-0.80;100.00;103474.75;4560544;61;1143254;-67
2023/02/08 01:26:47;;;;;;;37.65;17.40;;;;;;;-0.82;100.00;103485.96;4541937;61;1143190;-66
2023/02/08 01:31:53;;;;;;;40.27;20.40;;;;;;;-0.82;100.00;103493.34;4542290;61;1142979;-66
2023/02/08 01:36:59;;;;;;;32.08;17.82;;;;;;;-0.80;100.00;103492.06;4547524;62;1143300;-67
2023/02/08 01:42:05;;;;;;;31.77;15.83;;;;;;;-0.81;100.00;103503.30;4765714;60;1143112;-67
2023/02/08 01:47:12;;;;;;;64.57;28.27;;;;;;;-0.86;100.00;103495.42;4751556;59;1143078;-67
2023/02/08 01:52:22;;;;;;;62.10;24.50;;;;;;;-0.83;100.00;103502.40;4713649;60;1143102;-67
2023/02/08 01:57:29;;;;;;;48.87;20.73;;;;;;;-0.81;100.00;103500.70;4732202;60;1143179;-66
2023/02/08 02:02:36;;;;;;;37.47;18.50;;;;;;;-0.79;100.00;103497.29;4713780;60;1143056;-67
2023/02/08 02:07:42;;;;;;;36.40;15.87;;;;;;;-0.76;100.00;103499.91;4727645;60;1143083;-67
2023/02/08 02:12:51;;;;;;;33.23;17.23;;;;;;;-0.75;100.00;103498.19;4754223;59;1143250;-67
2023/02/08 02:17:56;;;;;;;53.40;20.72;;;;;;;-0.77;100.00;103496.02;4802791;58;1143151;-65
2023/02/08 02:23:16;;;;;;;21.37;12.70;;;;;;;-0.79;100.00;103497.72;4771776;58;1143303;-66
2023/02/08 02:28:58;;;;;;;28.60;12.33;;;;;;;-0.85;100.00;103489.80;4770094;59;1143212;-68
2023/02/08 02:34:14;;;;;;;19.70;9.88;;;;;;;-0.89;100.00;103494.06;4771460;59;1143070;-66
2023/02/08 02:39:37;;;;;;;17.33;8.17;;;;;;;-0.97;100.00;103493.07;4744740;59;1140879;-68
2023/02/08 02:45:04;;;;;;;22.42;9.50;;;;;;;-1.08;100.00;103494.61;4722676;59;1140962;-66
2023/02/08 02:50:20;;;;;;;17.80;9.77;;;;;;;-1.25;100.00;103490.83;4731183;59;1141034;-66
2023/02/08 02:55:29;;;;;;;14.87;9.30;;;;;;;-1.24;100.00;103483.06;4764782;59;1140960;-67
2023/02/08 03:00:36;;;;;;;26.05;9.28;;;;;;;-1.22;100.00;103485.23;4787689;60;1141067;-69
2023/02/08 03:05:41;;;;;;;29.83;13.43;;;;;;;-1.21;100.00;103501.69;4703599;60;1141098;-66
2023/02/08 03:11:00;;;;;;;32.80;14.80;;;;;;;-1.21;100.00;103509.48;4702780;60;1143060;-68
2023/02/08 03:16:48;;;;;;;30.70;14.63;;;;;;;-1.24;100.00;103514.64;4695667;60;1143265;-65
2023/02/08 03:22:04;;;;;;;32.93;16.27;;;;;;;-1.20;100.00;103512.11;4694433;59;1143245;-66
2023/02/08 03:27:20;;;;;;;41.00;19.53;;;;;;;-1.18;100.00;103518.64;4700935;60;1143105;-67
2023/02/08 03:32:48;;;;;;;51.40;24.43;;;;;;;-1.18;100.00;103516.91;4684570;59;1143188;-66
2023/02/08 03:38:07;;;;;;;92.03;28.67;;;;;;;-1.17;100.00;103523.86;4688301;59;1143077;-66
2023/02/08 03:43:29;;;;;;;63.30;28.43;;;;;;;-1.18;100.00;103534.22;4687708;60;1143407;-68
2023/02/08 03:48:40;;;;;;;79.67;28.92;;;;;;;-1.28;100.00;103527.98;4705782;60;1143244;-68
2023/02/08 03:53:50;;;;;;;131.13;46.00;;;;;;;-1.29;100.00;103524.05;4735285;59;1143216;-67
2023/02/08 03:59:04;;;;;;;61.90;27.90;;;;;;;-1.32;100.00;103522.27;4773464;59;1145080;-65
2023/02/08 04:04:14;;;;;;;79.92;31.37;;;;;;;-1.31;100.00;103525.75;4781015;58;1143062;-65
2023/02/08 04:09:20;;;;;;;76.37;32.50;;;;;;;-1.27;100.00;103526.27;4796279;58;1142960;-68
2023/02/08 04:14:26;;;;;;;60.27;28.63;;;;;;;-1.26;100.00;103522.41;4777587;58;1143075;-68
2023/02/08 04:19:32;;;;;;;80.90;33.27;;;;;;;-1.26;100.00;103525.00;4777011;58;1143101;-67
2023/02/08 04:24:38;;;;;;;80.87;33.03;;;;;;;-1.28;100.00;103518.90;4778557;58;1143257;-68
2023/02/08 04:29:44;;;;;;;66.30;30.60;;;;;;;-1.27;100.00;103526.27;4778535;57;1143210;-65
2023/02/08 04:34:50;;;;;;;59.73;27.23;;;;;;;-1.31;100.00;103524.02;4777058;58;1143213;-66
2023/02/08 04:39:55;;;;;;;59.00;26.47;;;;;;;-1.28;100.00;103529.28;4765883;58;1143102;-67
2023/02/08 04:45:02;;;;;;;54.77;29.17;;;;;;;-1.37;100.00;103526.48;4774759;58;1143027;-66
2023/02/08 04:50:08;;;;;;;71.43;31.60;;;;;;;-1.45;100.00;103517.69;4755479;58;1143284;-68
2023/02/08 04:55:14;;;;;;;65.70;31.60;;;;;;;-1.47;100.00;103524.14;4770134;58;1143061;-66
2023/02/08 05:00:20;;;;;;;77.23;33.90;;;;;;;-1.44;100.00;103524.63;4792943;58;1143164;-68
2023/02/08 05:05:27;;;;;;;64.97;30.47;;;;;;;-1.41;100.00;103524.70;4772945;60;1143107;-66
2023/02/08 05:10:33;;;;;;;70.87;31.13;;;;;;;-1.44;100.00;103528.10;4764454;58;1143521;-67
2023/02/08 05:15:39;;;;;;;77.90;34.83;;;;;;;-1.43;100.00;103527.69;4790632;58;1143002;-66
2023/02/08 05:20:45;;;;;;;61.90;32.48;;;;;;;-1.38;100.00;103526.06;4757775;59;1143202;-68
2023/02/08 05:25:51;;;;;;;67.15;33.75;;;;;;;-1.39;100.00;103531.22;4704091;59;1143167;-66
2023/02/08 05:30:57;;;;;;;79.10;35.23;;;;;;;-1.44;100.00;103537.19;4761525;57;1143113;-66
2023/02/08 05:36:02;;;;;;;67.10;32.33;;;;;;;-1.42;100.00;103548.91;4790960;58;1143255;-66
2023/02/08 05:41:09;;;;;;;91.53;38.17;;;;;;;-1.42;100.00;103552.37;4779529;58;1143161;-66
2023/02/08 05:46:15;;;;;;;69.47;30.73;;;;;;;-1.45;100.00;103549.71;4830502;57;1143242;-69
2023/02/08 05:51:21;;;;;;;61.63;30.17;;;;;;;-1.46;100.00;103553.15;4840567;57;1143007;-67
2023/02/08 05:56:27;;;;;;;77.63;35.77;;;;;;;-1.44;100.00;103558.37;4777696;58;1143127;-68
2023/02/08 06:01:33;;;;;;;60.20;28.40;;;;;;;-1.44;100.00;103568.77;4783684;58;1142976;-68
2023/02/08 06:06:39;;;;;;;71.40;31.43;;;;;;;-1.52;100.00;103578.97;4714177;58;1143189;-69
2023/02/08 06:11:45;;;;;;;63.92;31.12;;;;;;;-1.56;100.00;103574.58;4742250;59;1143169;-65
2023/02/08 06:16:51;;;;;;;62.83;27.77;;;;;;;-1.56;100.00;103582.78;4800810;58;1143055;-68
2023/02/08 06:21:56;;;;;;;70.57;29.33;;;;;;;-1.52;100.00;103588.47;4717401;59;1143239;-69
2023/02/08 06:27:02;;;;;;;65.77;29.23;;;;;;;-1.51;100.00;103600.61;4804426;58;1143036;-67
2023/02/08 06:32:09;;;;;;;68.17;30.53;;;;;;;-1.50;100.00;103607.13;4849098;59;1143026;-66
2023/02/08 06:37:18;;;;;;;74.87;34.90;;;;;;;-1.60;100.00;103603.89;4799370;58;1143147;-66
2023/02/08 06:42:25;;;;;;;62.67;28.67;;;;;;;-1.56;100.00;103595.76;4785135;59;1143190;-66
2023/02/08 06:47:31;;;;;;;71.67;34.10;;;;;;;-1.49;100.00;103606.70;4722119;59;1143322;-66
2023/02/08 06:52:38;;;;;;;68.73;32.17;;;;;;;-1.48;100.00;103604.15;4721924;60;1143170;-66
2023/02/08 06:57:45;;;;;;;68.33;33.33;;;;;;;-1.43;100.00;103598.64;4732563;60;1142965;-67
2023/02/08 07:02:51;;;;;;;66.63;32.97;;;;;;;-1.46;100.00;103601.59;4659707;60;1142990;-69
2023/02/08 07:07:57;;;;;;;60.98;27.45;;;;;;;-1.46;100.00;103612.84;4573726;60;1143601;-68
2023/02/08 07:13:05;;;;;;;74.87;34.77;;;;;;;-1.46;100.00;103622.36;4708508;59;1143252;-67
2023/02/08 07:18:11;;;;;;;89.80;48.40;;;;;;;-1.49;100.00;103623.16;4689838;59;1143092;-66
2023/02/08 07:23:17;;;;;;;71.97;31.03;;;;;;;-1.43;100.00;103618.11;4689653;59;1143069;-66
2023/02/08 07:28:23;;;;;;;83.50;37.70;;;;;;;-1.43;100.00;103606.85;4708384;58;1142901;-66
2023/02/08 07:33:29;;;;;;;84.27;38.57;;;;;;;-1.46;100.00;103597.70;4689907;59;1142922;-69
2023/02/08 07:38:35;;;;;;;116.40;48.73;;;;;;;-1.42;100.00;103595.63;4615558;59;1143019;-67
2023/02/08 07:43:42;;;;;;;81.47;39.27;;;;;;;-1.35;100.00;103596.20;4704557;59;1145102;-67
2023/02/08 07:48:49;;;;;;;56.68;28.10;;;;;;;-1.32;100.00;103591.49;4689793;59;1143154;-68
2023/02/08 07:53:54;;;;;;;57.10;25.75;;;;;;;-1.30;100.00;103583.31;4689891;59;1143074;-66
2023/02/08 07:59:00;;;;;;;126.20;47.00;;;;;;;-1.29;100.00;103582.48;4690150;59;1143130;-68
2023/02/08 08:04:06;;;;;;;86.47;33.90;;;;;;;-1.32;100.00;103577.22;4769903;59;1145082;-66
2023/02/08 08:09:14;;;;;;;135.30;42.47;;;;;;;-1.27;100.00;103592.47;4751865;59;1143060;-66
2023/02/08 08:14:20;;;;;;;44.83;20.77;;;;;;;-1.15;100.00;103589.70;4751911;60;1145050;-67
2023/02/08 08:19:26;;;;;;;81.77;32.40;;;;;;;-0.93;100.00;103581.03;4721060;60;1143143;-67
2023/02/08 08:24:34;;;;;;;45.97;18.87;;;;;;;-0.57;100.00;103573.88;4722687;60;1142949;-65
2023/02/08 08:29:42;;;;;;;49.83;21.30;;;;;;;-0.30;99.72;103579.09;4678675;58;1143223;-69
2023/02/08 08:34:47;;;;;;;86.43;25.97;;;;;;;-0.28;100.00;103582.59;4758706;59;1144405;-68
2023/02/08 08:39:53;;;;;;;46.18;17.00;;;;;;;-0.26;98.62;103584.80;4678599;60;1143232;-67
2023/02/08 08:44:59;;;;;;;62.35;28.12;;;;;;;-0.23;97.35;103590.05;4637286;59;1141101;-69
2023/02/08 08:50:06;;;;;;;38.50;18.03;;;;;;;-0.22;100.00;103586.18;4692952;59;1141114;-67
2023/02/08 08:55:12;;;;;;;52.70;21.20;;;;;;;0.24;100.00;103585.57;4623298;61;1143228;-68
2023/02/08 09:00:18;;;;;;;36.33;17.47;;;;;;;0.41;99.17;103589.72;4626057;60;1141096;-69
2023/02/08 09:05:24;;;;;;;35.77;15.03;;;;;;;0.55;98.61;103590.77;4783927;59;1138819;-67
2023/02/08 09:10:30;;;;;;;49.07;17.57;;;;;;;0.83;96.98;103588.95;4725751;59;1139281;-69
2023/02/08 09:15:41;;;;;;;34.73;15.67;;;;;;;0.79;96.50;103588.89;4728192;60;1138775;-69
2023/02/08 09:20:49;;;;;;;32.03;15.63;;;;;;;1.15;98.42;103593.65;4690411;59;1138967;-69
2023/02/08 09:25:54;;;;;;;58.10;19.70;;;;;;;1.40;94.71;103602.16;4664533;60;1138923;-69
2023/02/08 09:31:03;;;;;;;29.85;14.95;;;;;;;1.46;96.62;103603.53;4546306;61;1138939;-68
2023/02/08 09:36:09;;;;;;;22.87;12.43;;;;;;;1.54;95.06;103599.67;4879186;58;1138777;-68
2023/02/08 09:41:43;;;;;;;22.53;12.13;;;;;;;1.68;92.69;103598.93;4888483;57;1138915;-69
2023/02/08 09:46:57;;;;;;;60.93;27.87;;;;;;;1.65;93.28;103592.84;4894346;58;1138875;-65
2023/02/08 09:52:18;;;;;;;47.20;16.45;;;;;;;1.40;89.31;103596.51;4827248;58;1138862;-66
2023/02/08 09:57:28;;;;;;;21.20;10.93;;;;;;;1.22;92.19;103591.11;4841297;58;1138990;-66
2023/02/08 10:02:38;;;;;;;32.73;13.80;;;;;;;1.29;93.04;103595.97;4881734;58;1139063;-69
2023/02/08 10:07:44;;;;;;;21.30;11.08;;;;;;;1.27;91.38;103592.47;4796269;58;1138927;-70
2023/02/08 10:13:21;;;;;;;23.86;11.10;;;;;;;1.44;90.95;103587.42;4787648;59;1139053;-68
2023/02/08 10:18:32;;;;;;;24.27;12.23;;;;;;;1.43;89.11;103580.45;4804344;59;1138970;-68
2023/02/08 10:24:18;;;;;;;35.97;12.80;;;;;;;1.43;90.04;103581.33;4704676;59;1138925;-68
2023/02/08 10:34:42;;;;;;;19.53;9.13;;;;;;;1.59;86.97;103578.00;5125278;54;46216;-65
2023/02/08 10:39:50;;;;;;;22.93;11.40;;;;;;;1.53;88.52;103569.27;5021332;56;1132598;-65
2023/02/08 10:45:06;;;;;;;19.33;8.90;;;;;;;1.60;88.41;103566.70;5152992;55;1138887;-68
2023/02/08 10:50:37;;;;;;;18.43;9.87;;;;;;;1.67;88.17;103560.69;5170825;55;1137016;-66
2023/02/08 10:55:47;;;;;;;41.02;14.80;;;;;;;1.65;87.04;103563.71;5154218;55;1136694;-68
2023/02/08 11:00:56;;;;;;;17.77;8.27;;;;;;;1.70;85.04;103558.51;5131667;54;1138806;-69
2023/02/08 11:06:02;;;;;;;11.80;8.08;;;;;;;1.73;86.71;103553.32;5125272;55;1136928;-64
2023/02/08 11:11:12;;;;;;;17.50;7.93;;;;;;;1.78;87.87;103549.02;5152620;55;1136878;-66
2023/02/08 11:16:26;;;;;;;25.73;10.77;;;;;;;1.86;86.60;103543.84;5126310;54;1136805;-65
2023/02/08 11:21:37;;;;;;;25.77;12.43;;;;;;;1.88;86.47;103539.51;5120502;55;1138859;-66
2023/02/08 11:26:43;;;;;;;14.70;8.67;;;;;;;1.91;85.85;103542.14;5144801;55;1138778;-66
2023/02/08 11:32:02;;;;;;;19.25;9.60;;;;;;;1.97;85.17;103546.98;5181215;55;1136845;-65
2023/02/08 11:37:27;;;;;;;21.70;10.40;;;;;;;1.97;85.69;103531.33;5168396;55;1137024;-66
2023/02/08 11:42:43;;;;;;;26.73;12.25;;;;;;;2.06;86.71;103527.45;5098393;55;1138865;-68
2023/02/08 11:47:49;;;;;;;28.37;14.43;;;;;;;2.20;85.12;103516.20;5148222;55;1141403;-68
2023/02/08 11:53:06;;;;;;;28.80;12.85;;;;;;;2.37;87.00;103515.86;5114928;55;1139197;-66
2023/02/08 11:58:24;;;;;;;23.50;11.73;;;;;;;2.56;85.92;103511.59;5101286;55;1139138;-68
2023/02/08 12:03:44;;;;;;;16.33;10.60;;;;;;;2.64;85.12;103517.70;5140576;55;1139070;-68
2023/02/08 12:09:16;;;;;;;33.25;16.87;;;;;;;2.68;82.80;103514.23;5127609;55;1138925;-66
2023/02/08 12:14:35;;;;;;;36.20;16.13;;;;;;;2.78;86.40;103503.80;5127594;55;1139008;-66
2023/02/08 12:19:48;;;;;;;31.60;16.50;;;;;;;3.01;85.92;103499.94;5111678;55;1138821;-68
2023/02/08 12:25:30;;;;;;;36.98;19.60;;;;;;;3.09;82.94;103498.19;5143223;55;1139084;-65
2023/02/08 12:31:01;;;;;;;34.33;17.40;;;;;;;3.11;84.24;103496.45;5133712;55;1138919;-67
2023/02/08 12:36:32;;;;;;;24.93;13.27;;;;;;;3.17;82.14;103489.94;5112340;55;1139022;-67
2023/02/08 12:41:54;;;;;;;20.23;11.00;;;;;;;3.23;81.29;103486.86;5108016;55;1139226;-70
2023/02/08 12:47:37;;;;;;;28.47;14.93;;;;;;;3.35;79.99;103483.84;5147178;55;1138907;-70
2023/02/08 12:52:48;;;;;;;55.67;25.30;;;;;;;3.39;81.67;103495.14;5152291;55;1139007;-68
2023/02/08 12:58:01;;;;;;;52.67;23.55;;;;;;;3.44;84.25;103487.75;5147888;55;1138777;-66
2023/02/08 13:03:35;;;;;;;47.80;24.67;;;;;;;3.76;81.81;103485.09;5144239;55;1138907;-65
2023/02/08 13:08:51;;;;;;;37.28;19.82;;;;;;;3.89;83.27;103487.24;5177745;55;1138868;-65
2023/02/08 13:14:06;;;;;;;31.50;15.60;;;;;;;3.90;79.68;103479.83;4997031;56;1138872;-67
2023/02/08 13:19:31;;;;;;;29.17;13.90;;;;;;;3.86;81.19;103480.70;5011079;56;1138837;-68
2023/02/08 13:24:42;;;;;;;38.08;19.07;;;;;;;3.83;79.97;103468.91;5026193;56;1139194;-67
2023/02/08 13:29:51;;;;;;;43.55;20.52;;;;;;;3.86;80.59;103468.48;5014219;56;1138990;-67
2023/02/08 13:35:16;;;;;;;38.73;19.60;;;;;;;3.98;79.51;103462.33;5001527;55;1138940;-68
2023/02/08 13:40:28;;;;;;;37.60;16.77;;;;;;;4.15;82.35;103460.52;5008342;56;1138943;-69
2023/02/08 13:45:39;;;;;;;39.93;18.23;;;;;;;4.09;78.08;103457.08;4993759;56;1138869;-68
2023/02/08 13:50:54;;;;;;;63.03;27.43;;;;;;;4.06;78.91;103454.46;5019136;55;1138928;-69
2023/02/08 13:56:04;;;;;;;44.73;21.40;;;;;;;4.64;78.64;103447.18;5115387;55;1138819;-67
2023/02/08 14:01:30;;;;;;;44.48;25.35;;;;;;;5.13;78.12;103452.95;5121636;56;1138804;-67
2023/02/08 14:06:43;;;;;;;34.50;18.40;;;;;;;5.90;76.86;103447.42;5124088;56;1138813;-70
2023/02/08 14:11:53;;;;;;;27.35;15.98;;;;;;;6.28;72.74;103435.55;5119314;55;1138781;-67
2023/02/08 14:17:20;;;;;;;53.90;28.33;;;;;;;6.48;70.39;103435.30;5049676;55;1138975;-69
2023/02/08 14:22:30;;;;;;;41.02;20.97;;;;;;;6.67;72.45;103438.09;5064439;55;1138827;-70
2023/02/08 14:27:43;;;;;;;27.73;17.83;;;;;;;6.87;71.87;103419.39;5141209;56;1138954;-69
2023/02/08 14:33:08;;;;;;;28.95;16.50;;;;;;;6.80;71.45;103417.73;5102209;56;1138831;-70
2023/02/08 14:38:55;;;;;;;33.53;18.07;;;;;;;6.37;69.64;103413.11;5046677;56;1138872;-68
2023/02/08 14:44:22;;;;;;;46.27;26.80;;;;;;;5.11;72.46;103403.56;5018079;57;1138975;-67
2023/02/08 14:49:31;;;;;;;28.90;17.42;;;;;;;4.22;75.00;103405.94;5021354;57;1138804;-66
2023/02/08 14:54:47;;;;;;;30.50;16.20;;;;;;;3.58;77.53;103400.06;5041664;56;1138959;-65
2023/02/08 14:59:55;;;;;;;37.43;18.33;;;;;;;3.92;78.54;103392.11;5012372;56;1138965;-65
2023/02/08 15:05:03;;;;;;;32.47;17.97;;;;;;;3.93;78.09;103398.66;5021223;57;1139176;-69
2023/02/08 15:10:15;;;;;;;31.73;16.20;;;;;;;3.50;79.24;103404.46;5042596;57;1138896;-67
2023/02/08 15:15:31;;;;;;;47.37;23.73;;;;;;;3.05;80.32;103398.41;5002421;57;1139156;-67
2023/02/08 15:20:37;;;;;;;74.80;31.13;;;;;;;2.75;81.79;103391.88;5020905;56;1138919;-66
2023/02/08 15:25:44;;;;;;;107.57;38.93;;;;;;;2.51;83.04;103391.83;5061885;57;1138902;-70
2023/02/08 15:31:05;;;;;;;107.23;33.53;;;;;;;2.29;84.28;103381.78;5042097;57;1141669;-67
2023/02/08 15:36:33;;;;;;;594.03;218.57;;;;;;;2.10;84.90;103388.25;4906050;56;1140957;-69
2023/02/08 15:41:38;;;;;;;181.13;57.23;;;;;;;1.98;85.92;103379.52;4951335;56;1142838;-69
2023/02/08 15:47:03;;;;;;;67.50;21.33;;;;;;;1.88;86.42;103380.32;5064290;55;1141006;-69
2023/02/08 15:52:30;;;;;;;39.00;18.47;;;;;;;1.82;86.98;103382.92;5043889;55;1139051;-67
2023/02/08 15:57:58;;;;;;;55.50;25.30;;;;;;;1.71;87.61;103388.06;5051795;55;1139149;-68
2023/02/08 16:03:22;;;;;;;43.02;20.08;;;;;;;1.61;88.16;103371.51;5039223;56;1138918;-66
2023/02/08 16:08:32;;;;;;;56.53;24.80;;;;;;;1.59;88.50;103381.48;5057898;56;1138819;-68
2023/02/08 16:13:41;;;;;;;84.77;37.83;;;;;;;1.51;89.09;103372.77;5046904;56;1138857;-69
2023/02/08 16:19:02;;;;;;;65.80;33.60;;;;;;;1.48;89.86;103374.92;5046446;55;1138730;-67
2023/02/08 16:24:15;;;;;;;70.90;31.23;;;;;;;1.42;90.12;103381.39;5045716;55;1139116;-67
2023/02/08 16:29:31;;;;;;;74.30;31.37;;;;;;;1.34;90.69;103378.75;5114454;55;1138829;-70
2023/02/08 16:34:38;;;;;;;67.80;29.43;;;;;;;1.30;91.33;103380.02;5099169;56;1138797;-67
2023/02/08 16:40:19;;;;;;;62.93;25.87;;;;;;;1.31;92.01;103370.91;5099051;56;1138873;-68
2023/02/08 16:45:25;;;;;;;49.70;23.67;;;;;;;1.28;92.58;103364.79;5118509;55;1139121;-67
2023/02/08 16:50:34;;;;;;;65.10;26.53;;;;;;;1.21;93.49;103352.59;5139240;55;1138803;-66
2023/02/08 16:55:39;;;;;;;61.50;25.60;;;;;;;1.14;94.24;103366.00;5120971;55;1139069;-68
2023/02/08 17:00:45;;;;;;;87.77;36.87;;;;;;;1.15;94.45;103362.97;5121059;56;1138765;-65
2023/02/08 17:05:52;;;;;;;63.33;25.93;;;;;;;1.07;95.62;103361.59;5101473;56;1138966;-69
2023/02/08 17:10:58;;;;;;;55.97;24.90;;;;;;;0.99;95.21;103361.55;5140240;56;1145786;-67
2023/02/08 17:16:04;;;;;;;63.95;29.18;;;;;;;0.89;95.92;103355.84;5121558;55;1139021;-67
2023/02/08 17:21:11;;;;;;;61.80;28.57;;;;;;;0.77;96.43;103354.41;5121633;56;1138932;-69
2023/02/08 17:26:26;;;;;;;59.10;27.32;;;;;;;0.67;96.82;103363.89;5141871;56;1161580;-68
2023/02/08 17:31:33;;;;;;;71.97;33.23;;;;;;;0.59;97.57;103356.89;5119819;55;1245510;-69
2023/02/08 17:36:39;;;;;;;65.33;29.40;;;;;;;0.49;98.78;103362.41;5084267;56;1138944;-69
2023/02/08 17:41:45;;;;;;;65.67;28.13;;;;;;;0.45;98.23;103366.30;5057257;56;1138948;-66
2023/02/08 17:46:51;;;;;;;66.35;30.15;;;;;;;0.39;98.72;103367.53;5029285;55;1138821;-69
2023/02/08 17:51:58;;;;;;;214.40;96.33;;;;;;;0.36;100.00;103357.95;5045612;55;1145357;-67
2023/02/08 17:57:03;;;;;;;127.67;60.52;;;;;;;0.29;100.00;103350.53;5066978;56;1142996;-66
2023/02/08 18:02:10;;;;;;;270.07;101.00;;;;;;;0.22;100.00;103351.31;5108491;56;1142959;-68
2023/02/08 18:07:16;;;;;;;310.13;116.57;;;;;;;0.19;100.00;103347.80;5045231;56;1145093;-70
2023/02/08 18:12:22;;;;;;;267.63;125.73;;;;;;;0.16;100.00;103340.81;5065407;57;1145138;-70
2023/02/08 18:17:28;;;;;;;89.00;45.30;;;;;;;0.17;100.00;103345.59;5045553;57;1145073;-70
2023/02/08 18:22:35;;;;;;;105.43;45.33;;;;;;;0.15;100.00;103338.23;5043966;56;1141067;-67
2023/02/08 18:27:41;;;;;;;83.53;33.73;;;;;;;0.09;100.00;103339.03;5065404;56;1143005;-66
2023/02/08 18:32:48;;;;;;;81.87;32.70;;;;;;;0.06;100.00;103331.61;5045518;57;1141005;-67
2023/02/08 18:37:54;;;;;;;86.73;35.57;;;;;;;-0.01;100.00;103329.39;5126666;56;1140873;-67
2023/02/08 18:43:00;;;;;;;80.80;33.90;;;;;;;0.03;100.00;103332.87;5130283;55;1143049;-68
2023/02/08 18:48:06;;;;;;;79.47;36.27;;;;;;;-0.02;100.00;103318.53;5150704;56;1141485;-67
2023/02/08 18:53:12;;;;;;;83.70;34.27;;;;;;;-0.07;100.00;103312.40;5129613;56;1181199;-68
2023/02/08 18:58:17;;;;;;;121.13;53.03;;;;;;;-0.11;100.00;103304.98;5130636;55;1142972;-68
2023/02/08 19:03:23;;;;;;;145.93;57.97;;;;;;;-0.17;100.00;103301.45;5150855;56;1145001;-67
2023/02/08 19:08:30;;;;;;;88.77;35.20;;;;;;;-0.19;100.00;103286.26;5128691;56;1242796;-68
2023/02/08 19:13:35;;;;;;;84.93;34.93;;;;;;;-0.20;100.00;103296.21;5128665;56;1257445;-67
2023/02/08 19:18:42;;;;;;;71.43;32.47;;;;;;;-0.24;100.00;103291.82;5150493;56;1143166;-69
2023/02/08 19:23:53;;;;;;;94.43;39.10;;;;;;;-0.29;100.00;103276.16;5124830;55;1143315;-69
2023/02/08 19:29:02;;;;;;;104.87;37.93;;;;;;;-0.31;100.00;103267.92;5131007;56;1143028;-68
2023/02/08 19:34:08;;;;;;;86.78;36.68;;;;;;;-0.35;100.00;103259.20;5123441;56;1258484;-68
2023/02/08 19:39:21;;;;;;;99.20;37.20;;;;;;;-0.40;100.00;103250.05;5148134;56;1142892;-68
2023/02/08 19:44:27;;;;;;;92.27;35.98;;;;;;;-0.45;100.00;103239.13;5128602;56;1256068;-69
2023/02/08 19:49:33;;;;;;;75.13;34.20;;;;;;;-0.55;100.00;103229.07;5109150;55;1142913;-67
2023/02/08 19:54:39;;;;;;;88.30;35.47;;;;;;;-0.56;100.00;103231.22;5116582;56;1143168;-66
2023/02/08 19:59:46;;;;;;;93.83;38.03;;;;;;;-0.66;100.00;103233.28;5096830;56;1143444;-66
2023/02/08 20:04:52;;;;;;;109.63;42.80;;;;;;;-0.75;100.00;103226.22;5116138;56;1143026;-68
2023/02/08 20:09:58;;;;;;;120.83;45.23;;;;;;;-0.75;100.00;103226.65;5096946;56;1145263;-69
2023/02/08 20:15:04;;;;;;;104.23;42.13;;;;;;;-0.76;100.00;103221.88;5116729;56;1145083;-67
2023/02/08 20:20:11;;;;;;;108.20;46.68;;;;;;;-0.80;100.00;103220.55;5094393;56;1261392;-66
2023/02/08 20:25:17;;;;;;;119.27;46.60;;;;;;;-0.82;100.00;103220.95;5095881;56;1160314;-68
2023/02/08 20:30:29;;;;;;;109.93;45.67;;;;;;;-0.84;100.00;103220.92;5116228;56;1145362;-69
2023/02/08 20:35:31;;;;;;;102.40;39.00;;;;;;;-0.87;100.00;103216.98;5095312;56;1145333;-67
2023/02/08 20:40:36;;;;;;;94.50;41.50;;;;;;;-0.92;100.00;103199.19;5096463;56;1145254;-68
2023/02/08 20:45:43;;;;;;;88.37;39.07;;;;;;;-0.95;100.00;103201.74;5116740;56;1142965;-69
2023/02/08 20:50:49;;;;;;;88.97;40.37;;;;;;;-0.96;100.00;103199.13;5112657;56;1143224;-67
2023/02/08 20:55:55;;;;;;;86.70;37.97;;;;;;;-1.01;100.00;103200.77;5130374;56;1143061;-69
2023/02/08 21:01:01;;;;;;;87.50;37.57;;;;;;;-1.08;100.00;103199.41;5124533;55;1143045;-68
2023/02/08 21:06:17;;;;;;;83.50;38.10;;;;;;;-1.13;100.00;103192.41;5142513;55;1143177;-69
2023/02/08 21:11:30;;;;;;;88.97;38.83;;;;;;;-1.14;100.00;103189.36;5109688;55;1143785;-67
2023/02/08 21:16:35;;;;;;;138.23;58.80;;;;;;;-1.16;100.00;103179.37;5098207;55;1143000;-69
2023/02/08 21:21:41;;;;;;;136.03;57.27;;;;;;;-1.16;100.00;103181.55;5118232;56;1145017;-68
2023/02/08 21:26:48;;;;;;;118.67;50.27;;;;;;;-1.18;100.00;103170.26;5097709;56;1145013;-68
2023/02/08 21:31:56;;;;;;;121.27;50.83;;;;;;;-1.18;100.00;103170.26;5097973;56;1145222;-68
2023/02/08 21:37:05;;;;;;;97.67;43.80;;;;;;;-1.20;100.00;103160.70;5095567;56;1145103;-69
2023/02/08 21:42:10;;;;;;;106.52;41.73;;;;;;;-1.26;100.00;103152.84;5065642;56;1143062;-69
2023/02/08 21:47:19;;;;;;;112.57;47.50;;;;;;;-1.37;100.00;103137.11;5045507;56;1145112;-69
2023/02/08 21:57:51;;;;;;;116.13;48.03;;;;;;;-1.39;100.00;103139.27;5061036;56;1144977;-70
2023/02/08 22:02:57;;;;;;;153.97;59.53;;;;;;;-1.44;100.00;103130.11;5127022;55;1145096;-69
2023/02/08 22:08:04;;;;;;;143.50;60.30;;;;;;;-1.49;100.00;103125.27;5126739;55;1145141;-70
2023/02/08 22:13:11;;;;;;;114.95;50.30;;;;;;;-1.52;100.00;103130.41;5147838;55;1145408;-68
2023/02/08 22:18:17;;;;;;;128.97;52.33;;;;;;;-1.56;100.00;103125.63;5129025;55;1145261;-69
2023/02/08 22:23:22;;;;;;;131.30;55.87;;;;;;;-1.61;100.00;103127.70;5124737;55;1145338;-69
2023/02/08 22:28:28;;;;;;;139.97;53.52;;;;;;;-1.64;100.00;103118.56;5149875;56;1145219;-67
2023/02/08 22:33:34;;;;;;;114.17;47.93;;;;;;;-1.73;100.00;103125.80;5129873;56;1145033;-69
2023/02/08 22:38:40;;;;;;;123.13;49.77;;;;;;;-1.76;100.00;103119.27;5058966;55;1145203;-69
2023/02/08 22:43:48;;;;;;;108.07;44.67;;;;;;;-1.80;100.00;103109.69;5093580;56;1145134;-69
2023/02/08 22:48:54;;;;;;;104.50;43.40;;;;;;;-1.86;100.00;103100.11;5130106;56;1145421;-68
2023/02/08 22:54:01;;;;;;;107.97;42.20;;;;;;;-1.92;100.00;103098.71;5114462;56;1145110;-70
2023/02/08 22:59:06;;;;;;;95.60;39.20;;;;;;;-1.91;100.00;103095.70;5067210;56;1145101;-68
2023/02/08 23:04:12;;;;;;;97.27;39.43;;;;;;;-1.94;100.00;103097.81;5096427;56;1142895;-70
2023/02/08 23:09:18;;;;;;;98.10;41.40;;;;;;;-1.95;100.00;103092.17;5096555;56;1142903;-70